sensor_id;sensor_type;location;lat;lon;timestamp;temperature;humidity
21193;DHT22;10754;51.106;7.164;2023-07-08T00:00:27;24.30;99.90
21193;DHT22;10754;51.106;7.164;2023-07-08T00:02:53;24.20;99.90
21193;DHT22;10754;51.106;7.164;2023-07-08T00:05:20;24.30;99.90
21193;DHT22;10754;51.106;7.164;2023-07-08T00:07:47;24.30;99.90
21193;DHT22;10754;51.106;7.164;2023-07-08T00:10:25;24.30;99.90
21193;DHT22;10754;51.106;7.164;2023-07-08T00:12:52;24.30;99.90
21193;DHT22;10754;51.106;7.164;2023-07-08T00:15:20;24.10;99.90
21193;DHT22;10754;51.106;7.164;2023-07-08T00:17:46;24.20;99.90
21193;DHT22;10754;51.106;7.164;2023-07-08T00:20:26;24.20;99.90
21193;DHT22;10754;51.106;7.164;2023-07-08T00:22:54;24.20;99.90
21193;DHT22;10754;51.106;7.164;2023-07-08T00:25:20;24.10;99.90
21193;DHT22;10754;51.106;7.164;2023-07-08T00:27:46;24.10;99.90
21193;DHT22;10754;51.106;7.164;2023-07-08T00:30:26;24.10;99.90
21193;DHT22;10754;51.106;7.164;2023-07-08T00:32:53;24.10;99.90
21193;DHT22;10754;51.106;7.164;2023-07-08T00:37:48;24.00;99.90
21193;DHT22;10754;51.106;7.164;2023-07-08T00:40:18;24.00;99.90
21193;DHT22;10754;51.106;7.164;2023-07-08T00:42:44;24.10;99.90
21193;DHT22;10754;51.106;7.164;2023-07-08T00:45:32;24.10;99.90
21193;DHT22;10754;51.106;7.164;2023-07-08T00:48:05;24.00;99.90
21193;DHT22;10754;51.106;7.164;2023-07-08T00:50:30;24.00;99.90
21193;DHT22;10754;51.106;7.164;2023-07-08T00:53:26;23.90;99.90
21193;DHT22;10754;51.106;7.164;2023-07-08T00:56:04;24.00;99.90
21193;DHT22;10754;51.106;7.164;2023-07-08T00:58:39;24.00;99.90
21193;DHT22;10754;51.106;7.164;2023-07-08T01:01:07;23.90;99.90
21193;DHT22;10754;51.106;7.164;2023-07-08T01:03:39;23.90;99.90
21193;DHT22;10754;51.106;7.164;2023-07-08T01:06:05;23.90;99.90
21193;DHT22;10754;51.106;7.164;2023-07-08T01:08:32;23.90;99.90
21193;DHT22;10754;51.106;7.164;2023-07-08T01:11:01;23.90;99.90
21193;DHT22;10754;51.106;7.164;2023-07-08T01:13:31;23.90;99.90
21193;DHT22;10754;51.106;7.164;2023-07-08T01:15:58;23.90;99.90
21193;DHT22;10754;51.106;7.164;2023-07-08T01:18:24;23.90;99.90
21193;DHT22;10754;51.106;7.164;2023-07-08T01:20:50;23.90;99.90
21193;DHT22;10754;51.106;7.164;2023-07-08T01:23:17;23.90;99.90
21193;DHT22;10754;51.106;7.164;2023-07-08T01:25:44;23.90;99.90
21193;DHT22;10754;51.106;7.164;2023-07-08T01:28:10;23.90;99.90
21193;DHT22;10754;51.106;7.164;2023-07-08T01:30:36;23.90;99.90
21193;DHT22;10754;51.106;7.164;2023-07-08T01:33:05;23.80;99.90
21193;DHT22;10754;51.106;7.164;2023-07-08T01:35:32;23.90;99.90
21193;DHT22;10754;51.106;7.164;2023-07-08T01:38:00;23.90;99.90
21193;DHT22;10754;51.106;7.164;2023-07-08T01:40:30;23.90;99.90
21193;DHT22;10754;51.106;7.164;2023-07-08T01:42:57;23.90;99.90
21193;DHT22;10754;51.106;7.164;2023-07-08T01:45:26;23.90;99.90
21193;DHT22;10754;51.106;7.164;2023-07-08T01:47:56;23.80;99.90
21193;DHT22;10754;51.106;7.164;2023-07-08T01:50:25;23.80;99.90
21193;DHT22;10754;51.106;7.164;2023-07-08T01:52:52;23.80;99.90
21193;DHT22;10754;51.106;7.164;2023-07-08T01:55:23;23.80;99.90
21193;DHT22;10754;51.106;7.164;2023-07-08T01:57:51;23.90;99.90
21193;DHT22;10754;51.106;7.164;2023-07-08T02:00:18;23.70;99.90
21193;DHT22;10754;51.106;7.164;2023-07-08T02:02:44;23.80;99.90
21193;DHT22;10754;51.106;7.164;2023-07-08T02:05:09;23.80;99.90
21193;DHT22;10754;51.106;7.164;2023-07-08T02:07:35;23.80;99.90
21193;DHT22;10754;51.106;7.164;2023-07-08T02:10:00;23.70;99.90
21193;DHT22;10754;51.106;7.164;2023-07-08T02:12:26;23.80;99.90
21193;DHT22;10754;51.106;7.164;2023-07-08T02:14:51;23.80;99.90
21193;DHT22;10754;51.106;7.164;2023-07-08T02:17:17;23.80;99.90
21193;DHT22;10754;51.106;7.164;2023-07-08T02:19:43;23.80;99.90
21193;DHT22;10754;51.106;7.164;2023-07-08T02:22:09;23.70;99.90
21193;DHT22;10754;51.106;7.164;2023-07-08T02:24:35;23.70;99.90
21193;DHT22;10754;51.106;7.164;2023-07-08T02:27:01;23.70;99.90
21193;DHT22;10754;51.106;7.164;2023-07-08T02:29:26;23.60;99.90
21193;DHT22;10754;51.106;7.164;2023-07-08T02:31:52;23.70;99.90
21193;DHT22;10754;51.106;7.164;2023-07-08T02:34:17;23.60;99.90
21193;DHT22;10754;51.106;7.164;2023-07-08T02:36:43;23.60;99.90
21193;DHT22;10754;51.106;7.164;2023-07-08T02:39:09;23.60;99.90
21193;DHT22;10754;51.106;7.164;2023-07-08T02:41:35;23.50;99.90
21193;DHT22;10754;51.106;7.164;2023-07-08T02:44:00;23.50;99.90
21193;DHT22;10754;51.106;7.164;2023-07-08T02:46:26;23.50;99.90
21193;DHT22;10754;51.106;7.164;2023-07-08T02:48:51;23.50;99.90
21193;DHT22;10754;51.106;7.164;2023-07-08T02:51:17;23.50;99.90
21193;DHT22;10754;51.106;7.164;2023-07-08T02:53:42;23.40;99.90
21193;DHT22;10754;51.106;7.164;2023-07-08T02:56:08;23.40;99.90
21193;DHT22;10754;51.106;7.164;2023-07-08T02:58:33;23.40;99.90
21193;DHT22;10754;51.106;7.164;2023-07-08T03:00:59;23.40;99.90
21193;DHT22;10754;51.106;7.164;2023-07-08T03:03:26;23.50;99.90
21193;DHT22;10754;51.106;7.164;2023-07-08T03:06:02;23.40;99.90
21193;DHT22;10754;51.106;7.164;2023-07-08T03:08:28;23.40;99.90
21193;DHT22;10754;51.106;7.164;2023-07-08T03:10:59;23.30;99.90
21193;DHT22;10754;51.106;7.164;2023-07-08T03:13:25;23.40;99.90
21193;DHT22;10754;51.106;7.164;2023-07-08T03:15:51;23.30;99.90
21193;DHT22;10754;51.106;7.164;2023-07-08T03:18:17;23.30;99.90
21193;DHT22;10754;51.106;7.164;2023-07-08T03:20:43;23.40;99.90
21193;DHT22;10754;51.106;7.164;2023-07-08T03:23:12;23.40;99.90
21193;DHT22;10754;51.106;7.164;2023-07-08T03:25:38;23.30;99.90
21193;DHT22;10754;51.106;7.164;2023-07-08T03:28:04;23.30;99.90
21193;DHT22;10754;51.106;7.164;2023-07-08T03:30:33;23.30;99.90
21193;DHT22;10754;51.106;7.164;2023-07-08T03:32:59;23.30;99.90
21193;DHT22;10754;51.106;7.164;2023-07-08T03:35:25;23.30;99.90
21193;DHT22;10754;51.106;7.164;2023-07-08T03:37:51;23.40;99.90
21193;DHT22;10754;51.106;7.164;2023-07-08T03:40:17;23.40;99.90
21193;DHT22;10754;51.106;7.164;2023-07-08T03:42:42;23.30;99.90
21193;DHT22;10754;51.106;7.164;2023-07-08T03:45:08;23.30;99.90
21193;DHT22;10754;51.106;7.164;2023-07-08T03:47:34;23.30;99.90
21193;DHT22;10754;51.106;7.164;2023-07-08T03:50:00;23.30;99.90
21193;DHT22;10754;51.106;7.164;2023-07-08T03:52:25;23.40;99.90
21193;DHT22;10754;51.106;7.164;2023-07-08T03:54:50;23.30;99.90
21193;DHT22;10754;51.106;7.164;2023-07-08T03:57:16;23.40;99.90
21193;DHT22;10754;51.106;7.164;2023-07-08T03:59:42;23.30;99.90
21193;DHT22;10754;51.106;7.164;2023-07-08T04:02:10;23.30;99.90
21193;DHT22;10754;51.106;7.164;2023-07-08T04:04:36;23.20;99.90
21193;DHT22;10754;51.106;7.164;2023-07-08T04:07:03;23.20;99.90
21193;DHT22;10754;51.106;7.164;2023-07-08T04:09:28;23.20;99.90
21193;DHT22;10754;51.106;7.164;2023-07-08T04:11:54;23.20;99.90
21193;DHT22;10754;51.106;7.164;2023-07-08T04:14:19;23.20;99.90
21193;DHT22;10754;51.106;7.164;2023-07-08T04:16:50;23.20;99.90
21193;DHT22;10754;51.106;7.164;2023-07-08T04:19:17;23.20;99.90
21193;DHT22;10754;51.106;7.164;2023-07-08T04:21:44;23.20;99.90
21193;DHT22;10754;51.106;7.164;2023-07-08T04:24:12;23.20;99.90
21193;DHT22;10754;51.106;7.164;2023-07-08T04:26:38;23.30;99.90
21193;DHT22;10754;51.106;7.164;2023-07-08T04:29:11;23.30;99.90
21193;DHT22;10754;51.106;7.164;2023-07-08T04:31:37;23.30;99.90
21193;DHT22;10754;51.106;7.164;2023-07-08T04:34:03;23.30;99.90
21193;DHT22;10754;51.106;7.164;2023-07-08T04:36:28;23.30;99.90
21193;DHT22;10754;51.106;7.164;2023-07-08T04:38:54;23.30;99.90
21193;DHT22;10754;51.106;7.164;2023-07-08T04:41:23;23.40;99.90
21193;DHT22;10754;51.106;7.164;2023-07-08T04:43:51;23.40;99.90
21193;DHT22;10754;51.106;7.164;2023-07-08T04:46:23;23.40;99.90
21193;DHT22;10754;51.106;7.164;2023-07-08T04:48:52;23.40;99.90
21193;DHT22;10754;51.106;7.164;2023-07-08T04:51:18;23.30;99.90
21193;DHT22;10754;51.106;7.164;2023-07-08T04:53:44;23.30;99.90
21193;DHT22;10754;51.106;7.164;2023-07-08T04:56:10;23.30;99.90
21193;DHT22;10754;51.106;7.164;2023-07-08T04:58:35;23.30;99.90
21193;DHT22;10754;51.106;7.164;2023-07-08T05:01:01;23.30;99.90
21193;DHT22;10754;51.106;7.164;2023-07-08T05:03:26;23.30;99.90
21193;DHT22;10754;51.106;7.164;2023-07-08T05:05:52;23.30;99.90
21193;DHT22;10754;51.106;7.164;2023-07-08T05:08:17;23.30;99.90
21193;DHT22;10754;51.106;7.164;2023-07-08T05:10:43;23.30;99.90
21193;DHT22;10754;51.106;7.164;2023-07-08T05:13:09;23.30;99.90
21193;DHT22;10754;51.106;7.164;2023-07-08T05:15:34;23.30;99.90
21193;DHT22;10754;51.106;7.164;2023-07-08T05:18:01;23.40;99.90
21193;DHT22;10754;51.106;7.164;2023-07-08T05:20:26;23.40;99.90
21193;DHT22;10754;51.106;7.164;2023-07-08T05:22:52;23.50;99.90
21193;DHT22;10754;51.106;7.164;2023-07-08T05:25:18;23.50;99.90
21193;DHT22;10754;51.106;7.164;2023-07-08T05:27:44;23.50;99.90
21193;DHT22;10754;51.106;7.164;2023-07-08T05:30:14;23.60;99.90
21193;DHT22;10754;51.106;7.164;2023-07-08T05:32:40;23.60;99.90
21193;DHT22;10754;51.106;7.164;2023-07-08T05:35:05;23.60;99.90
21193;DHT22;10754;51.106;7.164;2023-07-08T05:37:31;23.60;99.90
21193;DHT22;10754;51.106;7.164;2023-07-08T05:39:56;23.60;99.90
21193;DHT22;10754;51.106;7.164;2023-07-08T05:42:25;23.60;99.90
21193;DHT22;10754;51.106;7.164;2023-07-08T05:44:50;23.60;99.90
21193;DHT22;10754;51.106;7.164;2023-07-08T05:47:17;23.60;99.90
21193;DHT22;10754;51.106;7.164;2023-07-08T05:49:43;23.70;99.90
21193;DHT22;10754;51.106;7.164;2023-07-08T05:52:08;23.70;99.90
21193;DHT22;10754;51.106;7.164;2023-07-08T05:54:40;23.80;99.90
21193;DHT22;10754;51.106;7.164;2023-07-08T05:57:07;23.80;99.90
21193;DHT22;10754;51.106;7.164;2023-07-08T05:59:34;23.70;99.90
21193;DHT22;10754;51.106;7.164;2023-07-08T06:02:00;23.80;99.90
21193;DHT22;10754;51.106;7.164;2023-07-08T06:04:27;23.80;99.90
21193;DHT22;10754;51.106;7.164;2023-07-08T06:06:52;23.80;99.90
21193;DHT22;10754;51.106;7.164;2023-07-08T06:09:18;23.90;99.90
21193;DHT22;10754;51.106;7.164;2023-07-08T06:11:43;23.90;99.90
21193;DHT22;10754;51.106;7.164;2023-07-08T06:14:09;24.00;99.90
21193;DHT22;10754;51.106;7.164;2023-07-08T06:16:34;24.00;99.90
21193;DHT22;10754;51.106;7.164;2023-07-08T06:19:00;24.10;99.90
21193;DHT22;10754;51.106;7.164;2023-07-08T06:21:26;24.10;99.90
21193;DHT22;10754;51.106;7.164;2023-07-08T06:23:51;24.10;99.90
21193;DHT22;10754;51.106;7.164;2023-07-08T06:26:17;24.10;99.90
21193;DHT22;10754;51.106;7.164;2023-07-08T06:28:42;24.10;99.90
21193;DHT22;10754;51.106;7.164;2023-07-08T06:31:08;24.10;99.90
21193;DHT22;10754;51.106;7.164;2023-07-08T06:33:33;24.10;99.90
21193;DHT22;10754;51.106;7.164;2023-07-08T06:35:59;24.20;99.90
21193;DHT22;10754;51.106;7.164;2023-07-08T06:38:24;24.20;99.90
21193;DHT22;10754;51.106;7.164;2023-07-08T06:40:49;24.20;99.90
21193;DHT22;10754;51.106;7.164;2023-07-08T06:43:15;24.20;99.90
21193;DHT22;10754;51.106;7.164;2023-07-08T06:45:41;24.20;99.90
21193;DHT22;10754;51.106;7.164;2023-07-08T06:48:07;24.30;99.90
21193;DHT22;10754;51.106;7.164;2023-07-08T06:50:32;24.40;99.90
21193;DHT22;10754;51.106;7.164;2023-07-08T06:52:58;24.50;99.90
21193;DHT22;10754;51.106;7.164;2023-07-08T06:55:23;24.50;99.90
21193;DHT22;10754;51.106;7.164;2023-07-08T06:57:49;24.50;99.90
21193;DHT22;10754;51.106;7.164;2023-07-08T07:00:15;24.50;99.90
21193;DHT22;10754;51.106;7.164;2023-07-08T07:02:40;24.60;99.90
21193;DHT22;10754;51.106;7.164;2023-07-08T07:05:06;24.70;99.90
21193;DHT22;10754;51.106;7.164;2023-07-08T07:07:32;24.80;99.90
21193;DHT22;10754;51.106;7.164;2023-07-08T07:09:57;24.90;99.90
21193;DHT22;10754;51.106;7.164;2023-07-08T07:12:24;24.90;99.90
21193;DHT22;10754;51.106;7.164;2023-07-08T07:14:50;25.30;99.90
21193;DHT22;10754;51.106;7.164;2023-07-08T07:17:19;25.30;99.90
21193;DHT22;10754;51.106;7.164;2023-07-08T07:19:44;25.30;99.90
21193;DHT22;10754;51.106;7.164;2023-07-08T07:22:10;25.70;99.90
21193;DHT22;10754;51.106;7.164;2023-07-08T07:24:35;25.60;99.90
21193;DHT22;10754;51.106;7.164;2023-07-08T07:27:01;25.70;99.90
21193;DHT22;10754;51.106;7.164;2023-07-08T07:29:27;25.80;99.90
21193;DHT22;10754;51.106;7.164;2023-07-08T07:31:52;25.80;99.90
21193;DHT22;10754;51.106;7.164;2023-07-08T07:34:18;25.80;99.90
21193;DHT22;10754;51.106;7.164;2023-07-08T07:36:43;26.00;99.90
21193;DHT22;10754;51.106;7.164;2023-07-08T07:39:09;26.60;99.90
21193;DHT22;10754;51.106;7.164;2023-07-08T07:41:35;26.70;99.90
21193;DHT22;10754;51.106;7.164;2023-07-08T07:44:00;26.80;99.90
21193;DHT22;10754;51.106;7.164;2023-07-08T07:46:25;26.60;99.90
21193;DHT22;10754;51.106;7.164;2023-07-08T07:48:51;26.40;99.90
21193;DHT22;10754;51.106;7.164;2023-07-08T07:51:17;26.30;99.90
21193;DHT22;10754;51.106;7.164;2023-07-08T07:53:42;26.80;99.90
21193;DHT22;10754;51.106;7.164;2023-07-08T07:56:08;27.00;99.90
21193;DHT22;10754;51.106;7.164;2023-07-08T07:58:34;26.80;99.90
21193;DHT22;10754;51.106;7.164;2023-07-08T08:00:59;26.80;99.90
21193;DHT22;10754;51.106;7.164;2023-07-08T08:03:25;26.80;99.90
21193;DHT22;10754;51.106;7.164;2023-07-08T08:05:50;26.70;99.90
21193;DHT22;10754;51.106;7.164;2023-07-08T08:08:16;27.30;99.90
21193;DHT22;10754;51.106;7.164;2023-07-08T08:10:42;27.60;99.90
21193;DHT22;10754;51.106;7.164;2023-07-08T08:13:08;27.40;99.90
21193;DHT22;10754;51.106;7.164;2023-07-08T08:15:34;27.40;99.90
21193;DHT22;10754;51.106;7.164;2023-07-08T08:17:59;27.50;99.90
21193;DHT22;10754;51.106;7.164;2023-07-08T08:20:25;27.40;99.90
21193;DHT22;10754;51.106;7.164;2023-07-08T08:22:51;27.50;99.90
21193;DHT22;10754;51.106;7.164;2023-07-08T08:25:19;27.50;99.90
21193;DHT22;10754;51.106;7.164;2023-07-08T08:27:45;27.40;99.90
21193;DHT22;10754;51.106;7.164;2023-07-08T08:30:11;27.40;99.90
21193;DHT22;10754;51.106;7.164;2023-07-08T08:32:37;27.40;99.90
21193;DHT22;10754;51.106;7.164;2023-07-08T08:35:03;27.50;99.90
21193;DHT22;10754;51.106;7.164;2023-07-08T08:37:29;27.70;99.90
21193;DHT22;10754;51.106;7.164;2023-07-08T08:39:55;27.70;99.90
21193;DHT22;10754;51.106;7.164;2023-07-08T08:42:30;27.80;99.90
21193;DHT22;10754;51.106;7.164;2023-07-08T08:45:00;28.00;99.90
21193;DHT22;10754;51.106;7.164;2023-07-08T08:47:35;28.00;99.90
21193;DHT22;10754;51.106;7.164;2023-07-08T08:50:40;28.10;99.90
21193;DHT22;10754;51.106;7.164;2023-07-08T08:53:12;28.10;99.90
21193;DHT22;10754;51.106;7.164;2023-07-08T08:55:38;27.90;99.90
21193;DHT22;10754;51.106;7.164;2023-07-08T09:00:59;29.20;99.90
21193;DHT22;10754;51.106;7.164;2023-07-08T09:03:39;29.00;99.90
21193;DHT22;10754;51.106;7.164;2023-07-08T09:06:12;28.80;99.90
21193;DHT22;10754;51.106;7.164;2023-07-08T09:08:38;28.70;99.90
21193;DHT22;10754;51.106;7.164;2023-07-08T09:11:18;28.60;99.90
21193;DHT22;10754;51.106;7.164;2023-07-08T09:13:45;28.60;99.90
21193;DHT22;10754;51.106;7.164;2023-07-08T09:18:45;28.90;99.90
21193;DHT22;10754;51.106;7.164;2023-07-08T09:21:25;28.80;99.90
21193;DHT22;10754;51.106;7.164;2023-07-08T09:23:55;28.90;99.90
21193;DHT22;10754;51.106;7.164;2023-07-08T09:26:27;29.10;99.90
21193;DHT22;10754;51.106;7.164;2023-07-08T09:28:55;29.10;99.90
21193;DHT22;10754;51.106;7.164;2023-07-08T09:31:30;29.00;99.90
21193;DHT22;10754;51.106;7.164;2023-07-08T09:36:30;30.10;99.90
21193;DHT22;10754;51.106;7.164;2023-07-08T09:38:56;29.90;99.90
21193;DHT22;10754;51.106;7.164;2023-07-08T09:41:33;30.00;99.90
21193;DHT22;10754;51.106;7.164;2023-07-08T09:44:16;30.00;99.90
21193;DHT22;10754;51.106;7.164;2023-07-08T09:46:42;29.90;99.90
21193;DHT22;10754;51.106;7.164;2023-07-08T09:51:44;30.20;99.90
21193;DHT22;10754;51.106;7.164;2023-07-08T09:54:09;30.60;99.90
21193;DHT22;10754;51.106;7.164;2023-07-08T09:56:35;30.60;99.90
21193;DHT22;10754;51.106;7.164;2023-07-08T09:59:04;30.40;99.90
21193;DHT22;10754;51.106;7.164;2023-07-08T10:01:30;30.40;99.90
21193;DHT22;10754;51.106;7.164;2023-07-08T10:03:59;30.90;99.90
21193;DHT22;10754;51.106;7.164;2023-07-08T10:06:28;30.70;99.90
21193;DHT22;10754;51.106;7.164;2023-07-08T10:08:55;30.40;99.90
21193;DHT22;10754;51.106;7.164;2023-07-08T10:11:29;30.70;99.90
21193;DHT22;10754;51.106;7.164;2023-07-08T10:14:10;31.20;99.90
21193;DHT22;10754;51.106;7.164;2023-07-08T10:16:38;31.00;99.90
21193;DHT22;10754;51.106;7.164;2023-07-08T10:19:15;31.00;99.90
21193;DHT22;10754;51.106;7.164;2023-07-08T10:22:06;31.40;99.90
21193;DHT22;10754;51.106;7.164;2023-07-08T10:36:05;31.40;99.90
21193;DHT22;10754;51.106;7.164;2023-07-08T10:38:48;31.20;99.90
21193;DHT22;10754;51.106;7.164;2023-07-08T10:44:07;31.60;99.90
21193;DHT22;10754;51.106;7.164;2023-07-08T10:49:40;31.70;99.90
21193;DHT22;10754;51.106;7.164;2023-07-08T10:52:33;31.80;99.90
21193;DHT22;10754;51.106;7.164;2023-07-08T10:58:13;32.40;99.90
21193;DHT22;10754;51.106;7.164;2023-07-08T11:00:51;32.40;99.90
21193;DHT22;10754;51.106;7.164;2023-07-08T11:06:22;32.90;99.90
21193;DHT22;10754;51.106;7.164;2023-07-08T11:08:57;32.90;99.90
21193;DHT22;10754;51.106;7.164;2023-07-08T11:11:39;33.10;99.90
21193;DHT22;10754;51.106;7.164;2023-07-08T11:14:14;33.00;99.90
21193;DHT22;10754;51.106;7.164;2023-07-08T11:16:47;33.00;99.90
21193;DHT22;10754;51.106;7.164;2023-07-08T11:19:35;33.10;99.90
21193;DHT22;10754;51.106;7.164;2023-07-08T11:22:05;33.20;99.90
21193;DHT22;10754;51.106;7.164;2023-07-08T11:24:39;33.40;99.90
21193;DHT22;10754;51.106;7.164;2023-07-08T11:27:15;33.80;99.90
21193;DHT22;10754;51.106;7.164;2023-07-08T11:29:55;33.90;99.90
21193;DHT22;10754;51.106;7.164;2023-07-08T11:32:23;34.20;99.90
21193;DHT22;10754;51.106;7.164;2023-07-08T11:34:52;34.10;99.90
21193;DHT22;10754;51.106;7.164;2023-07-08T11:37:19;34.10;99.90
21193;DHT22;10754;51.106;7.164;2023-07-08T11:40:15;34.10;99.90
21193;DHT22;10754;51.106;7.164;2023-07-08T11:42:40;34.30;99.90
21193;DHT22;10754;51.106;7.164;2023-07-08T11:47:45;34.80;99.90
21193;DHT22;10754;51.106;7.164;2023-07-08T11:50:20;34.80;99.90
21193;DHT22;10754;51.106;7.164;2023-07-08T11:53:00;35.00;90.40
21193;DHT22;10754;51.106;7.164;2023-07-08T11:55:35;35.20;87.30
21193;DHT22;10754;51.106;7.164;2023-07-08T11:58:01;35.40;87.50
21193;DHT22;10754;51.106;7.164;2023-07-08T12:00:30;35.50;92.00
21193;DHT22;10754;51.106;7.164;2023-07-08T12:02:59;35.60;84.90
21193;DHT22;10754;51.106;7.164;2023-07-08T12:05:30;35.60;95.20
21193;DHT22;10754;51.106;7.164;2023-07-08T12:07:57;35.70;85.70
21193;DHT22;10754;51.106;7.164;2023-07-08T12:10:37;35.90;87.30
21193;DHT22;10754;51.106;7.164;2023-07-08T12:13:13;36.10;73.10
21193;DHT22;10754;51.106;7.164;2023-07-08T12:15:39;36.20;79.00
21193;DHT22;10754;51.106;7.164;2023-07-08T12:18:11;36.30;70.60
21193;DHT22;10754;51.106;7.164;2023-07-08T12:20:39;36.50;57.20
21193;DHT22;10754;51.106;7.164;2023-07-08T12:23:18;36.60;61.40
21193;DHT22;10754;51.106;7.164;2023-07-08T12:25:44;36.80;62.60
21193;DHT22;10754;51.106;7.164;2023-07-08T12:28:11;36.90;40.90
21193;DHT22;10754;51.106;7.164;2023-07-08T12:30:38;37.00;49.70
21193;DHT22;10754;51.106;7.164;2023-07-08T12:33:13;37.20;55.70
21193;DHT22;10754;51.106;7.164;2023-07-08T12:35:40;37.40;61.70
21193;DHT22;10754;51.106;7.164;2023-07-08T12:38:27;37.90;72.40
21193;DHT22;10754;51.106;7.164;2023-07-08T12:40:56;38.60;58.10
21193;DHT22;10754;51.106;7.164;2023-07-08T12:43:22;39.00;16.30
21193;DHT22;10754;51.106;7.164;2023-07-08T12:45:47;39.60;2.50
21193;DHT22;10754;51.106;7.164;2023-07-08T12:48:13;40.90;1.00
21193;DHT22;10754;51.106;7.164;2023-07-08T12:50:38;41.00;1.00
21193;DHT22;10754;51.106;7.164;2023-07-08T12:53:05;41.40;1.00
21193;DHT22;10754;51.106;7.164;2023-07-08T12:55:38;41.60;1.00
21193;DHT22;10754;51.106;7.164;2023-07-08T12:58:05;41.10;1.00
21193;DHT22;10754;51.106;7.164;2023-07-08T13:00:36;40.70;4.90
21193;DHT22;10754;51.106;7.164;2023-07-08T13:03:13;40.50;1.00
21193;DHT22;10754;51.106;7.164;2023-07-08T13:05:40;40.90;1.00
21193;DHT22;10754;51.106;7.164;2023-07-08T13:08:14;40.70;1.00
21193;DHT22;10754;51.106;7.164;2023-07-08T13:10:48;40.70;1.00
21193;DHT22;10754;51.106;7.164;2023-07-08T13:13:22;40.80;1.00
21193;DHT22;10754;51.106;7.164;2023-07-08T13:15:48;41.00;1.00
21193;DHT22;10754;51.106;7.164;2023-07-08T13:18:16;41.10;1.00
21193;DHT22;10754;51.106;7.164;2023-07-08T13:20:53;41.00;1.00
21193;DHT22;10754;51.106;7.164;2023-07-08T13:23:21;41.60;1.00
21193;DHT22;10754;51.106;7.164;2023-07-08T13:25:51;41.70;1.00
21193;DHT22;10754;51.106;7.164;2023-07-08T13:28:29;42.30;1.00
21193;DHT22;10754;51.106;7.164;2023-07-08T13:31:12;41.80;1.00
21193;DHT22;10754;51.106;7.164;2023-07-08T13:33:44;41.60;1.00
21193;DHT22;10754;51.106;7.164;2023-07-08T13:36:10;42.60;1.00
21193;DHT22;10754;51.106;7.164;2023-07-08T13:38:38;43.20;1.00
21193;DHT22;10754;51.106;7.164;2023-07-08T13:41:05;43.80;1.00
21193;DHT22;10754;51.106;7.164;2023-07-08T13:43:35;42.50;1.00
21193;DHT22;10754;51.106;7.164;2023-07-08T13:46:02;41.90;1.00
21193;DHT22;10754;51.106;7.164;2023-07-08T13:48:37;42.50;1.00
21193;DHT22;10754;51.106;7.164;2023-07-08T13:51:14;43.10;1.00
21193;DHT22;10754;51.106;7.164;2023-07-08T13:53:59;43.00;1.00
21193;DHT22;10754;51.106;7.164;2023-07-08T13:56:28;42.30;1.00
21193;DHT22;10754;51.106;7.164;2023-07-08T13:59:08;41.60;1.00
21193;DHT22;10754;51.106;7.164;2023-07-08T14:01:40;41.30;1.00
21193;DHT22;10754;51.106;7.164;2023-07-08T14:04:07;41.00;1.00
21193;DHT22;10754;51.106;7.164;2023-07-08T14:06:35;40.80;1.00
21193;DHT22;10754;51.106;7.164;2023-07-08T14:09:12;40.60;1.00
21193;DHT22;10754;51.106;7.164;2023-07-08T14:11:37;40.60;1.00
21193;DHT22;10754;51.106;7.164;2023-07-08T14:14:03;40.50;1.00
21193;DHT22;10754;51.106;7.164;2023-07-08T14:16:31;40.50;1.00
21193;DHT22;10754;51.106;7.164;2023-07-08T14:19:02;40.60;1.00
21193;DHT22;10754;51.106;7.164;2023-07-08T14:21:32;40.80;1.00
21193;DHT22;10754;51.106;7.164;2023-07-08T14:23:58;41.00;1.00
21193;DHT22;10754;51.106;7.164;2023-07-08T14:26:24;40.80;1.00
21193;DHT22;10754;51.106;7.164;2023-07-08T14:28:49;40.50;1.00
21193;DHT22;10754;51.106;7.164;2023-07-08T14:31:20;40.20;1.00
21193;DHT22;10754;51.106;7.164;2023-07-08T14:33:46;39.80;1.00
21193;DHT22;10754;51.106;7.164;2023-07-08T14:36:12;39.60;1.00
21193;DHT22;10754;51.106;7.164;2023-07-08T14:38:38;39.10;1.00
21193;DHT22;10754;51.106;7.164;2023-07-08T14:41:04;38.70;1.00
21193;DHT22;10754;51.106;7.164;2023-07-08T14:43:31;38.40;1.00
21193;DHT22;10754;51.106;7.164;2023-07-08T14:46:00;38.10;6.10
21193;DHT22;10754;51.106;7.164;2023-07-08T14:48:28;38.20;1.00
21193;DHT22;10754;51.106;7.164;2023-07-08T14:50:54;38.00;16.50
21193;DHT22;10754;51.106;7.164;2023-07-08T14:53:20;37.70;24.60
21193;DHT22;10754;51.106;7.164;2023-07-08T14:55:48;37.50;30.80
21193;DHT22;10754;51.106;7.164;2023-07-08T14:58:26;37.50;36.70
21193;DHT22;10754;51.106;7.164;2023-07-08T15:00:57;37.20;34.50
21193;DHT22;10754;51.106;7.164;2023-07-08T15:03:24;36.70;56.80
21193;DHT22;10754;51.106;7.164;2023-07-08T15:05:50;36.30;60.30
21193;DHT22;10754;51.106;7.164;2023-07-08T15:08:15;36.20;53.00
21193;DHT22;10754;51.106;7.164;2023-07-08T15:10:46;36.00;49.10
21193;DHT22;10754;51.106;7.164;2023-07-08T15:13:12;35.80;71.00
21193;DHT22;10754;51.106;7.164;2023-07-08T15:15:38;35.70;86.90
21193;DHT22;10754;51.106;7.164;2023-07-08T15:18:15;35.60;97.00
21193;DHT22;10754;51.106;7.164;2023-07-08T15:20:42;35.60;99.90
21193;DHT22;10754;51.106;7.164;2023-07-08T15:23:09;35.40;99.90
21193;DHT22;10754;51.106;7.164;2023-07-08T15:25:36;35.20;99.90
21193;DHT22;10754;51.106;7.164;2023-07-08T15:28:03;35.20;99.90
21193;DHT22;10754;51.106;7.164;2023-07-08T15:30:30;35.10;85.30
21193;DHT22;10754;51.106;7.164;2023-07-08T15:32:56;35.10;88.20
21193;DHT22;10754;51.106;7.164;2023-07-08T15:35:23;34.90;99.90
21193;DHT22;10754;51.106;7.164;2023-07-08T15:37:50;34.70;99.90
21193;DHT22;10754;51.106;7.164;2023-07-08T15:40:18;34.70;99.90
21193;DHT22;10754;51.106;7.164;2023-07-08T15:42:46;34.60;99.90
21193;DHT22;10754;51.106;7.164;2023-07-08T15:45:23;34.60;99.90
21193;DHT22;10754;51.106;7.164;2023-07-08T15:47:50;34.60;99.90
21193;DHT22;10754;51.106;7.164;2023-07-08T15:50:19;34.60;99.90
21193;DHT22;10754;51.106;7.164;2023-07-08T15:52:45;34.50;99.90
21193;DHT22;10754;51.106;7.164;2023-07-08T15:55:12;34.40;99.90
21193;DHT22;10754;51.106;7.164;2023-07-08T15:57:47;34.40;99.90
21193;DHT22;10754;51.106;7.164;2023-07-08T16:00:19;34.40;99.90
21193;DHT22;10754;51.106;7.164;2023-07-08T16:02:48;34.20;99.90
21193;DHT22;10754;51.106;7.164;2023-07-08T16:05:14;34.10;99.90
21193;DHT22;10754;51.106;7.164;2023-07-08T16:07:40;34.00;99.90
21193;DHT22;10754;51.106;7.164;2023-07-08T16:10:06;34.30;99.90
21193;DHT22;10754;51.106;7.164;2023-07-08T16:12:32;34.10;99.90
21193;DHT22;10754;51.106;7.164;2023-07-08T16:14:58;34.10;99.90
21193;DHT22;10754;51.106;7.164;2023-07-08T16:17:23;34.00;99.90
21193;DHT22;10754;51.106;7.164;2023-07-08T16:19:49;34.10;99.90